createdAt,value
2019-05-11T00:05:44.593Z,82.40
2019-05-11T00:12:29.607Z,84.10
2019-05-11T00:19:14.603Z,83.90
2019-05-11T00:25:59.763Z,85.60
2019-05-11T00:32:44.626Z,86.00
2019-05-11T00:39:30.044Z,87.00
2019-05-11T00:46:15.140Z,87.30
2019-05-11T00:53:00.084Z,86.40
2019-05-11T00:59:45.036Z,87.60
2019-05-11T01:06:29.992Z,88.00
2019-05-11T01:13:14.991Z,89.50
2019-05-11T01:20:00.473Z,89.50
2019-05-11T01:26:45.465Z,90.30
2019-05-11T01:33:30.415Z,91.60
2019-05-11T01:40:15.933Z,92.20
2019-05-11T01:47:00.840Z,92.20
2019-05-11T01:53:48.000Z,92.30
2019-05-11T02:00:32.846Z,91.30
2019-05-11T02:07:18.248Z,91.60
2019-05-11T02:14:03.668Z,91.50
2019-05-11T02:20:48.695Z,90.30
2019-05-11T02:27:33.624Z,89.00
2019-05-11T02:34:19.458Z,89.40
2019-05-11T02:41:04.478Z,87.00
2019-05-11T02:47:49.700Z,88.00
2019-05-11T02:54:35.326Z,86.90
2019-05-11T03:01:20.265Z,87.90
2019-05-11T03:08:05.661Z,87.60
2019-05-11T03:14:50.596Z,88.20
2019-05-11T03:21:35.449Z,86.90
2019-05-11T03:28:20.803Z,87.90
2019-05-11T03:35:06.093Z,88.10
2019-05-11T03:41:51.106Z,87.60
2019-05-11T03:48:36.035Z,85.60
2019-05-11T03:55:20.967Z,83.80
2019-05-11T04:02:05.896Z,84.60
2019-05-11T04:08:50.873Z,83.20
2019-05-11T04:15:36.787Z,83.20
2019-05-11T04:22:21.659Z,82.40
2019-05-11T04:29:06.585Z,81.60
2019-05-11T04:35:51.664Z,81.20
2019-05-11T04:42:53.273Z,80.30
2019-05-11T04:49:23.165Z,79.40
2019-05-11T04:56:08.089Z,78.40
2019-05-11T05:02:53.257Z,77.40
2019-05-11T05:09:42.596Z,76.10
2019-05-11T05:16:24.861Z,74.80
2019-05-11T05:23:09.755Z,74.80
2019-05-11T05:29:54.617Z,73.70
2019-05-11T05:36:39.555Z,72.40
2019-05-11T05:43:28.332Z,70.80
2019-05-11T05:50:12.309Z,70.80
2019-05-11T05:56:57.335Z,70.60
2019-05-11T06:03:42.208Z,71.60
2019-05-11T06:10:27.154Z,72.80
2019-05-11T06:23:44.649Z,75.00
2019-05-11T06:30:29.643Z,78.20
2019-05-11T06:37:15.263Z,78.40
2019-05-11T06:44:02.162Z,78.80
2019-05-11T06:50:46.736Z,77.10
2019-05-11T06:57:31.899Z,69.70
2019-05-11T07:04:16.853Z,59.20
2019-05-11T07:11:01.788Z,64.70
2019-05-11T07:17:46.872Z,64.80
2019-05-11T07:24:31.747Z,65.00
2019-05-11T07:31:16.687Z,63.00
2019-05-11T07:38:01.695Z,64.80
2019-05-11T07:44:48.234Z,66.30
2019-05-11T07:51:33.152Z,56.80
2019-05-11T07:58:20.251Z,35.80
2019-05-11T08:05:08.507Z,35.80
2019-05-11T08:11:53.021Z,39.00
2019-05-11T08:18:38.672Z,41.60
2019-05-11T08:25:23.784Z,44.90
2019-05-11T08:32:08.868Z,44.00
2019-05-11T08:38:53.799Z,45.40
2019-05-11T08:45:39.422Z,43.60
2019-05-11T08:52:24.436Z,43.10
2019-05-11T08:59:09.364Z,39.30
2019-05-11T09:05:54.611Z,41.50
2019-05-11T09:12:39.504Z,40.60
2019-05-11T09:19:24.359Z,41.70
2019-05-11T09:26:09.288Z,43.90
2019-05-11T09:32:54.323Z,42.20
2019-05-11T09:39:39.260Z,35.00
2019-05-11T09:46:24.119Z,28.60
2019-05-11T09:53:08.975Z,26.20
2019-05-11T09:59:53.840Z,24.70
2019-05-11T10:06:39.168Z,24.90
2019-05-11T10:13:24.106Z,25.20
2019-05-11T10:20:09.587Z,25.60
2019-05-11T10:26:54.512Z,26.60
2019-05-11T10:33:39.539Z,28.70
2019-05-11T10:40:24.399Z,28.80
2019-05-11T10:47:09.259Z,29.00
2019-05-11T10:53:57.733Z,29.50
2019-05-11T11:00:42.668Z,28.50
2019-05-11T11:07:28.780Z,28.70
2019-05-11T11:14:13.963Z,28.60
2019-05-11T11:20:58.826Z,29.00
2019-05-11T11:27:44.023Z,29.10
2019-05-11T11:34:29.863Z,28.50
2019-05-11T11:41:14.971Z,28.80
2019-05-11T11:47:59.830Z,28.50
2019-05-11T11:54:44.691Z,29.00
2019-05-11T12:01:29.623Z,29.40
2019-05-11T12:08:14.477Z,29.40
2019-05-11T12:14:59.333Z,29.10
2019-05-11T12:21:44.192Z,29.60
2019-05-11T12:28:29.115Z,29.50
2019-05-11T12:35:14.116Z,30.00
2019-05-11T12:42:00.109Z,29.60
2019-05-11T12:48:48.257Z,29.10
2019-05-11T12:55:32.451Z,28.90
2019-05-11T13:02:18.425Z,28.70
2019-05-11T13:09:04.328Z,28.30
2019-05-11T13:15:49.186Z,28.60
2019-05-11T13:22:34.143Z,28.30
2019-05-11T13:29:19.075Z,28.40
2019-05-11T13:36:03.991Z,29.70
2019-05-11T13:42:49.305Z,37.70
2019-05-11T13:49:34.231Z,48.40
2019-05-11T13:56:19.163Z,50.50
2019-05-11T14:03:07.699Z,56.20
2019-05-11T14:09:52.381Z,55.30
2019-05-11T14:16:37.871Z,57.90
2019-05-11T14:23:22.939Z,51.70
2019-05-11T14:30:08.764Z,51.80
2019-05-11T14:36:53.859Z,48.30
2019-05-11T14:43:38.901Z,47.90
2019-05-11T14:50:23.887Z,61.10
2019-05-11T14:57:08.756Z,67.50
2019-05-11T15:03:53.626Z,70.90
2019-05-11T15:10:38.595Z,70.60
2019-05-11T15:17:23.496Z,71.20
2019-05-11T15:24:09.063Z,68.80
2019-05-11T15:30:54.127Z,67.70
2019-05-11T15:37:39.031Z,70.00
2019-05-11T15:44:23.903Z,69.80
2019-05-11T15:51:09.011Z,68.20
2019-05-11T15:57:53.864Z,71.50
2019-05-11T16:04:41.424Z,70.90
2019-05-11T16:11:25.271Z,72.90
2019-05-11T16:18:10.127Z,70.40
2019-05-11T16:24:57.952Z,67.90
2019-05-11T16:31:41.809Z,68.90
2019-05-11T16:38:28.873Z,70.20
2019-05-11T16:45:13.863Z,66.60
2019-05-11T16:51:58.870Z,68.10
2019-05-11T16:58:43.795Z,71.20
2019-05-11T17:05:33.344Z,73.50
2019-05-11T17:12:15.226Z,76.10
2019-05-11T17:19:00.075Z,78.60
2019-05-11T17:25:44.983Z,79.10
2019-05-11T17:32:30.099Z,82.00
2019-05-11T17:39:14.956Z,84.00
2019-05-11T17:45:59.812Z,83.30
2019-05-11T17:52:44.742Z,79.00
2019-05-11T17:59:29.953Z,78.70
2019-05-11T18:06:14.808Z,75.90
2019-05-11T18:13:03.818Z,77.00
2019-05-11T18:19:46.791Z,76.70
2019-05-11T18:26:32.008Z,77.70
2019-05-11T18:33:18.828Z,77.20
2019-05-11T18:40:04.538Z,76.20
2019-05-11T18:46:49.411Z,75.50
2019-05-11T18:53:34.276Z,76.00
2019-05-11T19:00:19.971Z,78.40
2019-05-11T19:07:14.134Z,78.50
2019-05-11T19:13:51.444Z,77.30
2019-05-11T19:20:45.331Z,78.10
2019-05-11T19:27:23.224Z,79.90
2019-05-11T19:34:08.103Z,82.30
2019-05-11T19:40:53.020Z,83.60
2019-05-11T19:47:37.966Z,83.50
2019-05-11T19:54:23.051Z,82.60
2019-05-11T20:01:08.724Z,80.40
2019-05-11T20:07:53.827Z,81.20
2019-05-11T20:14:38.951Z,80.40
2019-05-11T20:21:23.913Z,81.60
2019-05-11T20:28:08.900Z,80.70
2019-05-11T20:34:53.759Z,81.50
2019-05-11T20:41:38.684Z,83.50
2019-05-11T20:48:24.704Z,82.40
2019-05-11T20:55:09.891Z,82.10
2019-05-11T21:01:54.740Z,81.30
2019-05-11T21:08:39.583Z,81.60
2019-05-11T21:15:24.499Z,80.50
2019-05-11T21:22:09.373Z,80.30
2019-05-11T21:28:54.415Z,80.80
2019-05-11T21:35:39.272Z,80.70
2019-05-11T21:42:24.463Z,81.30
2019-05-11T21:49:09.382Z,80.60
2019-05-11T21:55:54.286Z,81.60
2019-05-11T22:02:39.431Z,82.00
2019-05-11T22:09:24.949Z,81.00
2019-05-11T22:16:10.243Z,79.10
2019-05-11T22:22:55.167Z,80.20
2019-05-11T22:29:40.041Z,80.30
2019-05-11T22:36:24.951Z,81.40
2019-05-11T22:43:10.027Z,81.70
2019-05-11T22:49:54.939Z,81.10
2019-05-11T22:56:39.787Z,80.80
2019-05-11T23:03:24.712Z,82.10
2019-05-11T23:10:10.883Z,81.70
2019-05-11T23:16:55.732Z,80.40
2019-05-11T23:23:40.587Z,80.50
2019-05-11T23:30:25.430Z,80.00
2019-05-11T23:37:10.488Z,78.60
2019-05-11T23:43:55.414Z,79.50
2019-05-11T23:50:40.514Z,78.70
2019-05-11T23:57:25.400Z,78.90
